sensor_id;sensor_type;location;lat;lon;timestamp;pressure;altitude;pressure_sealevel;temperature;humidity
21944;BME280;11136;48.778;9.126;2023-11-21T00:00:04;96853.13;;;9.81;70.42
21944;BME280;11136;48.778;9.126;2023-11-21T00:02:35;96907.97;;;10.26;70.39
21944;BME280;11136;48.778;9.126;2023-11-21T00:05:00;96789.41;;;9.41;69.97
21944;BME280;11136;48.778;9.126;2023-11-21T00:07:25;96910.31;;;10.17;70.48
21944;BME280;11136;48.778;9.126;2023-11-21T00:09:51;96880.91;;;9.98;70.29
21944;BME280;11136;48.778;9.126;2023-11-21T00:12:16;96898.28;;;10.06;70.85
21944;BME280;11136;48.778;9.126;2023-11-21T00:14:41;96897.47;;;10.05;70.34
21944;BME280;11136;48.778;9.126;2023-11-21T00:17:07;96887.69;;;9.99;71.07
21944;BME280;11136;48.778;9.126;2023-11-21T00:19:32;96876.44;;;9.89;71.24
21944;BME280;11136;48.778;9.126;2023-11-21T00:21:58;96881.34;;;9.92;71.75
21944;BME280;11136;48.778;9.126;2023-11-21T00:24:24;96890.97;;;9.89;71.24
21944;BME280;11136;48.778;9.126;2023-11-21T00:26:50;96846.41;;;9.67;71.04
21944;BME280;11136;48.778;9.126;2023-11-21T00:29:16;96845.78;;;9.52;71.10
21944;BME280;11136;48.778;9.126;2023-11-21T00:31:43;96876.78;;;9.85;71.76
21944;BME280;11136;48.778;9.126;2023-11-21T00:34:09;96746.09;;;8.90;71.62
21944;BME280;11136;48.778;9.126;2023-11-21T00:36:34;96699.25;;;8.66;71.82
21944;BME280;11136;48.778;9.126;2023-11-21T00:38:59;96780.44;;;8.99;72.25
21944;BME280;11136;48.778;9.126;2023-11-21T00:41:25;96857.25;;;9.71;72.48
21944;BME280;11136;48.778;9.126;2023-11-21T00:43:53;96757.41;;;8.99;71.77
21944;BME280;11136;48.778;9.126;2023-11-21T00:46:20;96905.97;;;9.82;72.23
21944;BME280;11136;48.778;9.126;2023-11-21T00:48:45;96835.84;;;9.48;72.53
21944;BME280;11136;48.778;9.126;2023-11-21T00:51:11;96779.09;;;9.06;72.23
21944;BME280;11136;48.778;9.126;2023-11-21T00:53:36;96779.88;;;9.19;72.25
21944;BME280;11136;48.778;9.126;2023-11-21T00:56:01;96886.69;;;9.89;72.21
21944;BME280;11136;48.778;9.126;2023-11-21T00:58:27;96846.25;;;9.58;72.33
21944;BME280;11136;48.778;9.126;2023-11-21T01:00:53;96762.72;;;9.09;71.84
21944;BME280;11136;48.778;9.126;2023-11-21T01:03:18;96797.03;;;8.81;71.93
21944;BME280;11136;48.778;9.126;2023-11-21T01:05:44;96798.50;;;9.45;72.10
21944;BME280;11136;48.778;9.126;2023-11-21T01:08:11;96856.63;;;9.80;71.38
21944;BME280;11136;48.778;9.126;2023-11-21T01:10:36;96888.59;;;9.98;71.86
21944;BME280;11136;48.778;9.126;2023-11-21T01:13:02;96882.56;;;9.99;71.61
21944;BME280;11136;48.778;9.126;2023-11-21T01:15:31;96885.53;;;9.93;72.59
21944;BME280;11136;48.778;9.126;2023-11-21T01:17:56;96896.47;;;9.95;72.43
21944;BME280;11136;48.778;9.126;2023-11-21T01:20:22;96889.31;;;10.00;72.33
21944;BME280;11136;48.778;9.126;2023-11-21T01:22:47;96877.44;;;9.99;72.00
21944;BME280;11136;48.778;9.126;2023-11-21T01:25:14;96885.22;;;9.98;72.16
21944;BME280;11136;48.778;9.126;2023-11-21T01:27:41;96898.84;;;9.98;72.42
21944;BME280;11136;48.778;9.126;2023-11-21T01:30:07;96886.88;;;9.99;72.69
21944;BME280;11136;48.778;9.126;2023-11-21T01:32:33;96761.34;;;9.29;71.70
21944;BME280;11136;48.778;9.126;2023-11-21T01:34:59;96882.81;;;10.07;71.85
21944;BME280;11136;48.778;9.126;2023-11-21T01:37:25;96878.41;;;10.09;71.72
21944;BME280;11136;48.778;9.126;2023-11-21T01:39:53;96885.03;;;10.12;72.32
21944;BME280;11136;48.778;9.126;2023-11-21T01:42:20;96864.06;;;10.07;71.56
21944;BME280;11136;48.778;9.126;2023-11-21T01:44:46;96759.25;;;9.34;71.89
21944;BME280;11136;48.778;9.126;2023-11-21T01:47:13;96824.50;;;9.76;71.81
21944;BME280;11136;48.778;9.126;2023-11-21T01:49:38;96636.06;;;8.68;71.75
21944;BME280;11136;48.778;9.126;2023-11-21T01:52:04;96870.97;;;10.18;71.89
21944;BME280;11136;48.778;9.126;2023-11-21T01:54:30;96736.47;;;9.31;71.76
21944;BME280;11136;48.778;9.126;2023-11-21T01:56:59;96715.59;;;9.24;71.54
21944;BME280;11136;48.778;9.126;2023-11-21T01:59:30;96873.13;;;10.24;71.50
21944;BME280;11136;48.778;9.126;2023-11-21T02:01:58;96834.81;;;9.98;72.12
21944;BME280;11136;48.778;9.126;2023-11-21T02:04:24;96756.63;;;9.46;72.00
21944;BME280;11136;48.778;9.126;2023-11-21T02:06:50;96907.56;;;10.20;71.76
21944;BME280;11136;48.778;9.126;2023-11-21T02:09:16;96882.88;;;10.19;71.57
21944;BME280;11136;48.778;9.126;2023-11-21T02:11:41;96862.88;;;10.00;72.11
21944;BME280;11136;48.778;9.126;2023-11-21T02:14:06;96863.94;;;9.97;72.15
21944;BME280;11136;48.778;9.126;2023-11-21T02:16:34;96882.16;;;9.93;72.88
21944;BME280;11136;48.778;9.126;2023-11-21T02:19:01;96878.06;;;9.90;72.78
21944;BME280;11136;48.778;9.126;2023-11-21T02:21:28;96859.91;;;9.69;72.50
21944;BME280;11136;48.778;9.126;2023-11-21T02:23:55;96628.16;;;8.35;72.54
21944;BME280;11136;48.778;9.126;2023-11-21T02:26:20;96741.44;;;9.08;72.25
21944;BME280;11136;48.778;9.126;2023-11-21T02:28:46;96867.81;;;9.90;72.40
21944;BME280;11136;48.778;9.126;2023-11-21T02:31:11;96866.69;;;9.94;72.23
21944;BME280;11136;48.778;9.126;2023-11-21T02:33:37;96784.88;;;9.45;72.16
21944;BME280;11136;48.778;9.126;2023-11-21T02:36:03;96790.34;;;9.40;72.33
21944;BME280;11136;48.778;9.126;2023-11-21T02:38:28;96867.41;;;9.96;72.58
21944;BME280;11136;48.778;9.126;2023-11-21T02:40:54;96865.56;;;9.98;72.57
21944;BME280;11136;48.778;9.126;2023-11-21T02:43:20;96796.94;;;9.56;71.83
21944;BME280;11136;48.778;9.126;2023-11-21T02:45:46;96774.75;;;9.43;71.82
21944;BME280;11136;48.778;9.126;2023-11-21T02:48:11;96823.59;;;9.64;72.02
21944;BME280;11136;48.778;9.126;2023-11-21T02:50:36;96670.59;;;8.74;71.99
21944;BME280;11136;48.778;9.126;2023-11-21T02:53:03;96666.94;;;8.65;72.03
21944;BME280;11136;48.778;9.126;2023-11-21T02:55:30;96853.16;;;9.92;72.02
21944;BME280;11136;48.778;9.126;2023-11-21T02:57:59;96859.91;;;9.93;71.71
21944;BME280;11136;48.778;9.126;2023-11-21T03:00:25;96772.44;;;9.40;71.73
21944;BME280;11136;48.778;9.126;2023-11-21T03:02:50;96856.19;;;9.86;71.84
21944;BME280;11136;48.778;9.126;2023-11-21T03:05:15;96800.84;;;9.48;71.97
21944;BME280;11136;48.778;9.126;2023-11-21T03:07:41;96851.72;;;9.77;71.97
21944;BME280;11136;48.778;9.126;2023-11-21T03:10:07;96849.97;;;9.77;72.64
21944;BME280;11136;48.778;9.126;2023-11-21T03:12:34;96742.34;;;8.83;72.06
21944;BME280;11136;48.778;9.126;2023-11-21T03:14:59;96863.81;;;9.75;72.42
21944;BME280;11136;48.778;9.126;2023-11-21T03:17:26;96860.63;;;9.71;72.00
21944;BME280;11136;48.778;9.126;2023-11-21T03:19:52;96750.44;;;9.01;71.77
21944;BME280;11136;48.778;9.126;2023-11-21T03:22:17;96873.88;;;9.65;72.55
21944;BME280;11136;48.778;9.126;2023-11-21T03:24:42;96699.66;;;8.60;72.48
21944;BME280;11136;48.778;9.126;2023-11-21T03:27:08;96860.97;;;9.67;72.54
21944;BME280;11136;48.778;9.126;2023-11-21T03:29:33;96817.28;;;9.33;72.15
21944;BME280;11136;48.778;9.126;2023-11-21T03:31:58;96871.41;;;9.64;72.90
21944;BME280;11136;48.778;9.126;2023-11-21T03:34:26;96866.53;;;9.61;73.13
21944;BME280;11136;48.778;9.126;2023-11-21T03:36:51;96870.00;;;9.60;72.89
21944;BME280;11136;48.778;9.126;2023-11-21T03:39:18;96864.06;;;9.59;72.73
21944;BME280;11136;48.778;9.126;2023-11-21T03:41:44;96871.63;;;9.61;72.89
21944;BME280;11136;48.778;9.126;2023-11-21T03:44:09;96732.63;;;8.76;73.06
21944;BME280;11136;48.778;9.126;2023-11-21T03:46:35;96868.16;;;9.62;72.45
21944;BME280;11136;48.778;9.126;2023-11-21T03:49:01;96782.59;;;9.05;72.28
21944;BME280;11136;48.778;9.126;2023-11-21T03:51:26;96653.91;;;8.32;72.05
21944;BME280;11136;48.778;9.126;2023-11-21T03:53:51;96675.47;;;8.27;72.70
21944;BME280;11136;48.778;9.126;2023-11-21T03:56:16;96776.63;;;9.05;72.04
21944;BME280;11136;48.778;9.126;2023-11-21T03:58:42;96864.28;;;9.56;72.30
21944;BME280;11136;48.778;9.126;2023-11-21T04:01:07;96825.47;;;9.26;72.37
21944;BME280;11136;48.778;9.126;2023-11-21T04:03:32;96827.09;;;9.27;72.45
21944;BME280;11136;48.778;9.126;2023-11-21T04:05:57;96755.75;;;8.74;73.09
21944;BME280;11136;48.778;9.126;2023-11-21T04:08:23;96877.59;;;9.48;73.02
21944;BME280;11136;48.778;9.126;2023-11-21T04:10:48;96884.56;;;9.46;73.87
21944;BME280;11136;48.778;9.126;2023-11-21T04:13:13;96760.38;;;8.44;73.75
21944;BME280;11136;48.778;9.126;2023-11-21T04:15:39;96881.72;;;9.38;74.10
21944;BME280;11136;48.778;9.126;2023-11-21T04:18:04;96886.03;;;9.38;74.27
21944;BME280;11136;48.778;9.126;2023-11-21T04:20:30;96818.59;;;8.89;74.28
21944;BME280;11136;48.778;9.126;2023-11-21T04:22:55;96700.00;;;8.17;74.36
21944;BME280;11136;48.778;9.126;2023-11-21T04:25:21;96794.69;;;8.78;73.98
21944;BME280;11136;48.778;9.126;2023-11-21T04:27:48;96721.56;;;8.39;74.25
21944;BME280;11136;48.778;9.126;2023-11-21T04:30:14;96713.84;;;8.13;74.05
21944;BME280;11136;48.778;9.126;2023-11-21T04:32:40;96976.59;;;9.35;74.88
21944;BME280;11136;48.778;9.126;2023-11-21T04:35:06;96845.97;;;9.00;74.42
21944;BME280;11136;48.778;9.126;2023-11-21T04:37:31;96738.91;;;8.46;74.03
21944;BME280;11136;48.778;9.126;2023-11-21T04:39:56;96753.22;;;8.36;74.48
21944;BME280;11136;48.778;9.126;2023-11-21T04:42:22;96883.56;;;9.36;74.01
21944;BME280;11136;48.778;9.126;2023-11-21T04:44:48;96871.63;;;9.24;74.07
21944;BME280;11136;48.778;9.126;2023-11-21T04:47:14;96825.13;;;8.81;73.91
21944;BME280;11136;48.778;9.126;2023-11-21T04:49:42;96773.22;;;8.55;74.35
21944;BME280;11136;48.778;9.126;2023-11-21T04:52:07;96897.09;;;9.26;74.33
21944;BME280;11136;48.778;9.126;2023-11-21T04:54:35;96889.31;;;9.27;74.68
21944;BME280;11136;48.778;9.126;2023-11-21T04:57:00;96895.88;;;9.31;73.65
21944;BME280;11136;48.778;9.126;2023-11-21T04:59:26;96857.13;;;9.12;73.41
21944;BME280;11136;48.778;9.126;2023-11-21T05:01:52;96887.88;;;9.36;73.95
21944;BME280;11136;48.778;9.126;2023-11-21T05:04:18;96892.88;;;9.37;73.88
21944;BME280;11136;48.778;9.126;2023-11-21T05:06:44;96891.97;;;9.38;73.64
21944;BME280;11136;48.778;9.126;2023-11-21T05:09:09;96897.06;;;9.38;73.88
21944;BME280;11136;48.778;9.126;2023-11-21T05:11:37;96905.34;;;9.42;73.96
21944;BME280;11136;48.778;9.126;2023-11-21T05:14:03;96901.50;;;9.36;73.75
21944;BME280;11136;48.778;9.126;2023-11-21T05:16:29;96891.16;;;9.38;74.01
21944;BME280;11136;48.778;9.126;2023-11-21T05:18:54;96839.84;;;9.03;73.61
21944;BME280;11136;48.778;9.126;2023-11-21T05:21:26;96595.75;;;7.60;73.16
21944;BME280;11136;48.778;9.126;2023-11-21T05:23:51;96907.09;;;9.54;73.75
21944;BME280;11136;48.778;9.126;2023-11-21T05:26:17;96913.63;;;9.58;73.45
21944;BME280;11136;48.778;9.126;2023-11-21T05:28:42;96912.59;;;9.61;73.56
21944;BME280;11136;48.778;9.126;2023-11-21T05:31:07;96924.34;;;9.63;73.59
21944;BME280;11136;48.778;9.126;2023-11-21T05:33:32;96925.06;;;9.65;73.49
21944;BME280;11136;48.778;9.126;2023-11-21T05:35:58;96921.53;;;9.42;73.13
21944;BME280;11136;48.778;9.126;2023-11-21T05:38:23;96930.19;;;9.65;73.30
21944;BME280;11136;48.778;9.126;2023-11-21T05:40:49;96829.97;;;8.73;73.24
21944;BME280;11136;48.778;9.126;2023-11-21T05:43:15;96899.75;;;9.37;73.69
21944;BME280;11136;48.778;9.126;2023-11-21T05:45:40;96927.22;;;9.59;73.64
21944;BME280;11136;48.778;9.126;2023-11-21T05:48:06;96727.03;;;8.33;73.32
21944;BME280;11136;48.778;9.126;2023-11-21T05:50:31;96790.53;;;8.64;72.89
21944;BME280;11136;48.778;9.126;2023-11-21T05:52:57;96945.22;;;9.70;73.53
21944;BME280;11136;48.778;9.126;2023-11-21T05:55:25;96671.88;;;7.92;72.95
21944;BME280;11136;48.778;9.126;2023-11-21T05:57:51;96941.53;;;9.74;72.91
21944;BME280;11136;48.778;9.126;2023-11-21T06:00:17;96777.31;;;8.70;73.45
21944;BME280;11136;48.778;9.126;2023-11-21T06:02:52;96800.22;;;8.59;72.84
21944;BME280;11136;48.778;9.126;2023-11-21T06:05:20;96855.66;;;9.20;72.59
21944;BME280;11136;48.778;9.126;2023-11-21T06:07:45;96984.13;;;9.75;73.22
21944;BME280;11136;48.778;9.126;2023-11-21T06:10:11;96961.91;;;9.75;73.11
21944;BME280;11136;48.778;9.126;2023-11-21T06:12:39;96851.91;;;9.13;72.77
21944;BME280;11136;48.778;9.126;2023-11-21T06:15:06;96754.53;;;8.54;72.73
21944;BME280;11136;48.778;9.126;2023-11-21T06:17:34;96859.38;;;9.16;72.83
21944;BME280;11136;48.778;9.126;2023-11-21T06:20:01;96878.09;;;9.17;72.31
21944;BME280;11136;48.778;9.126;2023-11-21T06:22:28;96704.78;;;7.96;72.37
21944;BME280;11136;48.778;9.126;2023-11-21T06:24:55;96963.66;;;9.75;73.00
21944;BME280;11136;48.778;9.126;2023-11-21T06:27:21;96909.16;;;9.36;73.00
21944;BME280;11136;48.778;9.126;2023-11-21T06:29:46;96814.53;;;8.74;72.51
21944;BME280;11136;48.778;9.126;2023-11-21T06:32:12;96932.47;;;9.44;72.40
21944;BME280;11136;48.778;9.126;2023-11-21T06:34:37;96896.19;;;9.14;72.43
21944;BME280;11136;48.778;9.126;2023-11-21T06:37:03;96781.03;;;8.41;72.36
21944;BME280;11136;48.778;9.126;2023-11-21T06:39:28;96953.16;;;9.41;72.40
21944;BME280;11136;48.778;9.126;2023-11-21T06:41:53;96996.31;;;9.71;72.64
21944;BME280;11136;48.778;9.126;2023-11-21T06:44:19;96832.91;;;8.79;72.86
21944;BME280;11136;48.778;9.126;2023-11-21T06:46:45;96803.50;;;8.61;72.60
21944;BME280;11136;48.778;9.126;2023-11-21T06:49:10;96978.34;;;9.35;72.59
21944;BME280;11136;48.778;9.126;2023-11-21T06:51:36;96917.78;;;8.84;72.22
21944;BME280;11136;48.778;9.126;2023-11-21T06:54:01;96759.50;;;8.05;72.78
21944;BME280;11136;48.778;9.126;2023-11-21T06:56:27;96811.06;;;8.50;72.76
21944;BME280;11136;48.778;9.126;2023-11-21T06:58:52;96878.63;;;8.71;72.91
21944;BME280;11136;48.778;9.126;2023-11-21T07:01:19;97001.31;;;9.73;73.00
21944;BME280;11136;48.778;9.126;2023-11-21T07:03:45;96965.72;;;9.44;72.85
21944;BME280;11136;48.778;9.126;2023-11-21T07:06:10;97003.88;;;9.73;72.77
21944;BME280;11136;48.778;9.126;2023-11-21T07:08:36;96915.72;;;9.15;73.20
21944;BME280;11136;48.778;9.126;2023-11-21T07:11:02;96739.91;;;7.93;72.64
21944;BME280;11136;48.778;9.126;2023-11-21T07:13:28;96845.47;;;8.57;72.94
21944;BME280;11136;48.778;9.126;2023-11-21T07:15:53;96910.63;;;9.15;72.66
21944;BME280;11136;48.778;9.126;2023-11-21T07:18:19;97016.78;;;9.71;73.69
21944;BME280;11136;48.778;9.126;2023-11-21T07:20:44;96981.28;;;9.41;73.18
21944;BME280;11136;48.778;9.126;2023-11-21T07:23:10;97024.34;;;9.73;73.61
21944;BME280;11136;48.778;9.126;2023-11-21T07:25:35;97024.34;;;9.73;73.55
21944;BME280;11136;48.778;9.126;2023-11-21T07:28:01;96813.69;;;8.36;73.22
21944;BME280;11136;48.778;9.126;2023-11-21T07:30:26;96880.16;;;8.74;72.93
21944;BME280;11136;48.778;9.126;2023-11-21T07:32:52;96858.03;;;8.35;73.37
21944;BME280;11136;48.778;9.126;2023-11-21T07:35:17;97028.97;;;9.68;73.92
21944;BME280;11136;48.778;9.126;2023-11-21T07:37:43;96846.63;;;8.40;73.44
21944;BME280;11136;48.778;9.126;2023-11-21T07:40:08;96986.63;;;9.38;73.66
21944;BME280;11136;48.778;9.126;2023-11-21T07:42:34;96766.88;;;7.97;73.44
21944;BME280;11136;48.778;9.126;2023-11-21T07:45:00;96776.00;;;7.87;73.73
21944;BME280;11136;48.778;9.126;2023-11-21T07:47:25;96785.28;;;8.15;73.65
21944;BME280;11136;48.778;9.126;2023-11-21T07:49:53;96957.06;;;9.09;73.21
21944;BME280;11136;48.778;9.126;2023-11-21T07:52:18;96945.50;;;9.03;73.62
21944;BME280;11136;48.778;9.126;2023-11-21T07:54:46;97046.06;;;9.67;73.76
21944;BME280;11136;48.778;9.126;2023-11-21T07:57:12;96989.59;;;9.32;74.14
21944;BME280;11136;48.778;9.126;2023-11-21T07:59:39;97048.53;;;9.69;74.63
21944;BME280;11136;48.778;9.126;2023-11-21T08:02:06;96975.38;;;9.28;74.11
21944;BME280;11136;48.778;9.126;2023-11-21T08:04:31;97049.94;;;9.73;74.22
21944;BME280;11136;48.778;9.126;2023-11-21T08:06:57;96938.41;;;8.81;74.25
21944;BME280;11136;48.778;9.126;2023-11-21T08:09:22;97058.88;;;9.80;73.89
21944;BME280;11136;48.778;9.126;2023-11-21T08:11:49;96967.88;;;9.25;73.88
21944;BME280;11136;48.778;9.126;2023-11-21T08:14:14;96735.78;;;7.78;73.93
21944;BME280;11136;48.778;9.126;2023-11-21T08:16:40;97003.81;;;9.62;74.03
21944;BME280;11136;48.778;9.126;2023-11-21T08:19:05;97056.69;;;9.99;73.42
21944;BME280;11136;48.778;9.126;2023-11-21T08:21:31;96959.31;;;9.39;73.64
21944;BME280;11136;48.778;9.126;2023-11-21T08:23:56;97062.44;;;10.03;74.18
21944;BME280;11136;48.778;9.126;2023-11-21T08:26:22;97011.38;;;9.76;73.74
21944;BME280;11136;48.778;9.126;2023-11-21T08:28:48;97094.75;;;10.17;73.58
21944;BME280;11136;48.778;9.126;2023-11-21T08:31:13;96872.69;;;8.96;73.17
21944;BME280;11136;48.778;9.126;2023-11-21T08:33:38;96892.00;;;9.13;73.54
21944;BME280;11136;48.778;9.126;2023-11-21T08:36:10;96869.47;;;9.18;73.43
21944;BME280;11136;48.778;9.126;2023-11-21T08:38:37;96919.19;;;9.39;73.38
21944;BME280;11136;48.778;9.126;2023-11-21T08:41:05;96915.59;;;9.42;73.55
21944;BME280;11136;48.778;9.126;2023-11-21T08:43:35;96964.91;;;9.93;73.39
21944;BME280;11136;48.778;9.126;2023-11-21T08:46:07;97003.03;;;9.98;73.43
21944;BME280;11136;48.778;9.126;2023-11-21T08:48:37;96941.34;;;9.64;73.74
21944;BME280;11136;48.778;9.126;2023-11-21T08:51:03;96972.25;;;10.10;73.05
21944;BME280;11136;48.778;9.126;2023-11-21T08:53:30;96943.06;;;9.76;73.24
21944;BME280;11136;48.778;9.126;2023-11-21T08:55:56;96978.72;;;10.03;73.21
21944;BME280;11136;48.778;9.126;2023-11-21T08:58:22;97080.22;;;10.90;72.76
21944;BME280;11136;48.778;9.126;2023-11-21T09:00:47;97011.38;;;10.49;73.21
21944;BME280;11136;48.778;9.126;2023-11-21T09:03:13;97066.72;;;10.76;72.82
21944;BME280;11136;48.778;9.126;2023-11-21T09:05:39;96710.66;;;8.73;72.88
21944;BME280;11136;48.778;9.126;2023-11-21T09:08:04;97093.66;;;11.05;72.66
21944;BME280;11136;48.778;9.126;2023-11-21T09:10:30;97090.03;;;10.96;72.72
21944;BME280;11136;48.778;9.126;2023-11-21T09:12:55;96984.78;;;10.02;72.65
21944;BME280;11136;48.778;9.126;2023-11-21T09:15:21;97011.97;;;10.29;73.15
21944;BME280;11136;48.778;9.126;2023-11-21T09:17:47;97108.53;;;10.89;73.19
21944;BME280;11136;48.778;9.126;2023-11-21T09:20:12;96784.00;;;8.97;72.76
21944;BME280;11136;48.778;9.126;2023-11-21T09:22:40;96874.34;;;9.70;72.48
21944;BME280;11136;48.778;9.126;2023-11-21T09:25:05;96985.31;;;10.31;72.87
21944;BME280;11136;48.778;9.126;2023-11-21T09:27:31;96948.38;;;10.23;72.26
21944;BME280;11136;48.778;9.126;2023-11-21T09:29:57;96870.34;;;9.79;71.87
21944;BME280;11136;48.778;9.126;2023-11-21T09:32:23;97073.91;;;11.18;72.51
21944;BME280;11136;48.778;9.126;2023-11-21T09:34:49;96855.84;;;9.91;71.89
21944;BME280;11136;48.778;9.126;2023-11-21T09:37:15;96859.22;;;9.91;71.75
21944;BME280;11136;48.778;9.126;2023-11-21T09:39:40;96943.34;;;10.45;71.75
21944;BME280;11136;48.778;9.126;2023-11-21T09:47:21;97118.22;;;11.55;71.82
21944;BME280;11136;48.778;9.126;2023-11-21T09:49:48;96808.34;;;9.63;71.51
21944;BME280;11136;48.778;9.126;2023-11-21T09:52:26;97041.50;;;10.93;71.70
21944;BME280;11136;48.778;9.126;2023-11-21T09:54:53;97124.59;;;11.50;71.78
21944;BME280;11136;48.778;9.126;2023-11-21T09:57:23;97126.69;;;11.45;71.80
21944;BME280;11136;48.778;9.126;2023-11-21T09:59:53;97134.84;;;11.39;71.86
21944;BME280;11136;48.778;9.126;2023-11-21T10:02:25;97132.28;;;11.39;71.84
21944;BME280;11136;48.778;9.126;2023-11-21T10:04:52;97053.44;;;10.70;72.25
21944;BME280;11136;48.778;9.126;2023-11-21T10:07:19;97067.09;;;10.82;72.31
21944;BME280;11136;48.778;9.126;2023-11-21T10:09:46;97141.19;;;11.22;72.31
21944;BME280;11136;48.778;9.126;2023-11-21T10:12:14;97136.66;;;11.25;72.22
21944;BME280;11136;48.778;9.126;2023-11-21T10:14:41;97084.19;;;10.94;72.10
21944;BME280;11136;48.778;9.126;2023-11-21T10:17:08;97135.50;;;11.29;72.14
21944;BME280;11136;48.778;9.126;2023-11-21T10:19:36;97143.22;;;11.29;72.15
21944;BME280;11136;48.778;9.126;2023-11-21T10:22:02;96843.06;;;9.30;72.01
21944;BME280;11136;48.778;9.126;2023-11-21T10:24:28;96976.66;;;10.08;71.66
21944;BME280;11136;48.778;9.126;2023-11-21T10:26:54;97078.78;;;10.86;72.14
21944;BME280;11136;48.778;9.126;2023-11-21T10:29:20;96988.44;;;10.24;71.74
21944;BME280;11136;48.778;9.126;2023-11-21T10:31:49;97131.97;;;11.19;72.01
21944;BME280;11136;48.778;9.126;2023-11-21T10:34:19;97136.47;;;10.81;72.00
21944;BME280;11136;48.778;9.126;2023-11-21T10:36:45;96973.53;;;9.92;72.07
21944;BME280;11136;48.778;9.126;2023-11-21T10:39:16;96887.22;;;9.45;72.39
21944;BME280;11136;48.778;9.126;2023-11-21T10:41:45;96712.75;;;8.30;72.34
21944;BME280;11136;48.778;9.126;2023-11-21T10:44:11;97011.72;;;9.95;72.61
21944;BME280;11136;48.778;9.126;2023-11-21T10:46:39;97148.25;;;11.07;72.39
21944;BME280;11136;48.778;9.126;2023-11-21T10:49:05;97149.47;;;11.14;72.54
21944;BME280;11136;48.778;9.126;2023-11-21T10:51:31;97106.47;;;10.94;72.43
21944;BME280;11136;48.778;9.126;2023-11-21T10:53:57;97004.78;;;10.34;72.30
21944;BME280;11136;48.778;9.126;2023-11-21T10:56:23;97066.06;;;10.85;71.72
21944;BME280;11136;48.778;9.126;2023-11-21T10:58:49;97146.31;;;11.46;71.45
21944;BME280;11136;48.778;9.126;2023-11-21T11:01:19;97151.09;;;11.50;71.29
21944;BME280;11136;48.778;9.126;2023-11-21T11:03:46;97017.06;;;10.65;71.21
21944;BME280;11136;48.778;9.126;2023-11-21T11:06:12;97092.97;;;11.03;71.29
21944;BME280;11136;48.778;9.126;2023-11-21T11:08:39;97143.66;;;11.58;71.21
21944;BME280;11136;48.778;9.126;2023-11-21T11:11:07;97019.31;;;10.81;71.35
21944;BME280;11136;48.778;9.126;2023-11-21T11:13:35;96979.81;;;10.25;71.51
21944;BME280;11136;48.778;9.126;2023-11-21T11:16:01;97145.97;;;11.50;71.83
21944;BME280;11136;48.778;9.126;2023-11-21T11:18:28;97028.31;;;10.63;71.64
21944;BME280;11136;48.778;9.126;2023-11-21T11:21:07;96619.22;;;8.16;71.62
21944;BME280;11136;48.778;9.126;2023-11-21T11:26:47;97165.97;;;11.58;71.72
21944;BME280;11136;48.778;9.126;2023-11-21T11:32:13;97158.03;;;11.61;71.56
21944;BME280;11136;48.778;9.126;2023-11-21T11:35:01;97156.16;;;11.63;71.55
21944;BME280;11136;48.778;9.126;2023-11-21T11:37:29;97036.31;;;10.82;71.43
21944;BME280;11136;48.778;9.126;2023-11-21T11:39:54;96951.31;;;10.17;71.47
21944;BME280;11136;48.778;9.126;2023-11-21T11:42:21;97042.28;;;10.83;71.29
21944;BME280;11136;48.778;9.126;2023-11-21T11:44:48;96782.44;;;9.43;71.37
21944;BME280;11136;48.778;9.126;2023-11-21T11:47:20;96927.78;;;10.35;71.42
21944;BME280;11136;48.778;9.126;2023-11-21T11:49:59;97159.28;;;11.90;71.36
21944;BME280;11136;48.778;9.126;2023-11-21T11:52:42;97154.19;;;12.02;71.30
21944;BME280;11136;48.778;9.126;2023-11-21T11:55:12;97153.00;;;12.06;71.04
21944;BME280;11136;48.778;9.126;2023-11-21T11:57:44;97145.53;;;12.14;71.09
21944;BME280;11136;48.778;9.126;2023-11-21T12:00:14;96806.25;;;9.92;70.79
21944;BME280;11136;48.778;9.126;2023-11-21T12:02:42;97015.94;;;11.16;71.00
21944;BME280;11136;48.778;9.126;2023-11-21T12:05:13;97004.19;;;11.35;70.92
21944;BME280;11136;48.778;9.126;2023-11-21T12:07:53;97162.81;;;12.34;71.10
21944;BME280;11136;48.778;9.126;2023-11-21T12:10:24;97071.00;;;11.80;70.68
21944;BME280;11136;48.778;9.126;2023-11-21T12:12:52;97135.25;;;12.14;70.47
21944;BME280;11136;48.778;9.126;2023-11-21T12:15:18;97108.38;;;12.07;70.81
21944;BME280;11136;48.778;9.126;2023-11-21T12:17:48;97165.63;;;12.42;70.65
21944;BME280;11136;48.778;9.126;2023-11-21T12:20:15;97160.97;;;12.47;70.04
21944;BME280;11136;48.778;9.126;2023-11-21T12:25:22;97176.38;;;12.47;69.94
21944;BME280;11136;48.778;9.126;2023-11-21T12:27:53;96976.03;;;11.12;70.06
21944;BME280;11136;48.778;9.126;2023-11-21T12:30:23;97167.25;;;12.43;70.14
21944;BME280;11136;48.778;9.126;2023-11-21T12:32:53;97171.00;;;12.39;70.22
21944;BME280;11136;48.778;9.126;2023-11-21T12:35:22;97173.09;;;12.34;70.41
21944;BME280;11136;48.778;9.126;2023-11-21T12:37:48;97178.25;;;12.23;70.43
21944;BME280;11136;48.778;9.126;2023-11-21T12:40:15;97066.22;;;11.29;70.60
21944;BME280;11136;48.778;9.126;2023-11-21T12:42:42;97119.16;;;11.54;70.45
21944;BME280;11136;48.778;9.126;2023-11-21T12:45:19;97093.66;;;11.40;70.42
21944;BME280;11136;48.778;9.126;2023-11-21T12:47:47;97068.75;;;11.18;70.68
21944;BME280;11136;48.778;9.126;2023-11-21T12:50:23;96930.91;;;10.28;70.61
21944;BME280;11136;48.778;9.126;2023-11-21T12:52:50;97145.91;;;11.63;70.59
21944;BME280;11136;48.778;9.126;2023-11-21T12:55:20;96986.47;;;10.62;70.33
21944;BME280;11136;48.778;9.126;2023-11-21T12:57:54;97111.00;;;11.25;70.53
21944;BME280;11136;48.778;9.126;2023-11-21T13:03:08;96995.75;;;10.76;70.44
21944;BME280;11136;48.778;9.126;2023-11-21T13:05:37;97134.47;;;11.67;70.72
21944;BME280;11136;48.778;9.126;2023-11-21T13:08:08;97184.31;;;12.00;70.60
21944;BME280;11136;48.778;9.126;2023-11-21T13:10:35;97185.47;;;12.07;70.56
21944;BME280;11136;48.778;9.126;2023-11-21T13:13:06;97179.63;;;12.05;70.38
21944;BME280;11136;48.778;9.126;2023-11-21T13:15:34;97005.03;;;10.90;70.38
21944;BME280;11136;48.778;9.126;2023-11-21T13:18:01;96991.66;;;10.73;70.36
21944;BME280;11136;48.778;9.126;2023-11-21T13:20:27;97030.81;;;10.99;70.48